sensor_id;sensor_type;location;lat;lon;timestamp;P1;durP1;ratioP1;P2;durP2;ratioP2
32788;SDS011;19141;48.980;8.410;2023-09-12T04:22:32;11.38;;;8.40;;
32788;SDS011;19141;48.980;8.410;2023-09-12T04:24:59;11.60;;;8.15;;
32788;SDS011;19141;48.980;8.410;2023-09-12T04:27:24;11.90;;;8.50;;
32788;SDS011;19141;48.980;8.410;2023-09-12T04:29:50;12.63;;;8.80;;
32788;SDS011;19141;48.980;8.410;2023-09-12T04:32:16;12.80;;;8.73;;
32788;SDS011;19141;48.980;8.410;2023-09-12T04:34:48;10.70;;;8.30;;
32788;SDS011;19141;48.980;8.410;2023-09-12T04:37:14;10.80;;;7.82;;
32788;SDS011;19141;48.980;8.410;2023-09-12T04:39:39;11.63;;;7.97;;
32788;SDS011;19141;48.980;8.410;2023-09-12T04:42:05;11.23;;;8.18;;
32788;SDS011;19141;48.980;8.410;2023-09-12T04:44:38;10.30;;;7.97;;
32788;SDS011;19141;48.980;8.410;2023-09-12T04:47:05;10.95;;;7.47;;
32788;SDS011;19141;48.980;8.410;2023-09-12T04:49:30;12.95;;;9.30;;
32788;SDS011;19141;48.980;8.410;2023-09-12T04:51:56;16.67;;;11.32;;
32788;SDS011;19141;48.980;8.410;2023-09-12T04:54:21;28.38;;;19.90;;
32788;SDS011;19141;48.980;8.410;2023-09-12T04:56:47;10.05;;;7.75;;
32788;SDS011;19141;48.980;8.410;2023-09-12T04:59:12;17.00;;;10.05;;
32788;SDS011;19141;48.980;8.410;2023-09-12T05:01:38;17.85;;;13.07;;
32788;SDS011;19141;48.980;8.410;2023-09-12T05:04:03;14.25;;;10.52;;
32788;SDS011;19141;48.980;8.410;2023-09-12T05:06:29;14.20;;;9.23;;
32788;SDS011;19141;48.980;8.410;2023-09-12T05:08:54;13.35;;;9.43;;
32788;SDS011;19141;48.980;8.410;2023-09-12T05:11:21;14.90;;;8.88;;
32788;SDS011;19141;48.980;8.410;2023-09-12T05:13:48;12.75;;;8.98;;
32788;SDS011;19141;48.980;8.410;2023-09-12T05:16:14;11.30;;;7.95;;
32788;SDS011;19141;48.980;8.410;2023-09-12T05:18:39;11.27;;;8.27;;
32788;SDS011;19141;48.980;8.410;2023-09-12T05:21:05;14.85;;;8.88;;
32788;SDS011;19141;48.980;8.410;2023-09-12T05:23:30;12.95;;;8.88;;
32788;SDS011;19141;48.980;8.410;2023-09-12T05:25:56;14.18;;;9.20;;
32788;SDS011;19141;48.980;8.410;2023-09-12T05:28:22;11.90;;;8.60;;
32788;SDS011;19141;48.980;8.410;2023-09-12T05:30:49;14.48;;;8.55;;
32788;SDS011;19141;48.980;8.410;2023-09-12T05:33:15;12.43;;;8.65;;
32788;SDS011;19141;48.980;8.410;2023-09-12T05:35:41;12.40;;;8.25;;
32788;SDS011;19141;48.980;8.410;2023-09-12T05:38:07;9.35;;;7.75;;
32788;SDS011;19141;48.980;8.410;2023-09-12T05:40:32;12.70;;;8.15;;
32788;SDS011;19141;48.980;8.410;2023-09-12T05:42:58;11.15;;;7.70;;
32788;SDS011;19141;48.980;8.410;2023-09-12T05:45:24;12.57;;;8.52;;
32788;SDS011;19141;48.980;8.410;2023-09-12T05:47:50;9.70;;;7.50;;
32788;SDS011;19141;48.980;8.410;2023-09-12T05:50:15;10.23;;;7.20;;
32788;SDS011;19141;48.980;8.410;2023-09-12T05:52:41;9.70;;;7.35;;
32788;SDS011;19141;48.980;8.410;2023-09-12T05:55:08;10.50;;;8.00;;
32788;SDS011;19141;48.980;8.410;2023-09-12T05:57:34;11.45;;;7.90;;
32788;SDS011;19141;48.980;8.410;2023-09-12T06:00:00;10.27;;;7.82;;
32788;SDS011;19141;48.980;8.410;2023-09-12T06:02:26;10.32;;;7.55;;
32788;SDS011;19141;48.980;8.410;2023-09-12T06:04:52;10.43;;;7.47;;
32788;SDS011;19141;48.980;8.410;2023-09-12T06:07:17;9.95;;;7.13;;
32788;SDS011;19141;48.980;8.410;2023-09-12T06:09:43;10.18;;;7.93;;
32788;SDS011;19141;48.980;8.410;2023-09-12T06:12:08;12.27;;;8.60;;
32788;SDS011;19141;48.980;8.410;2023-09-12T06:14:34;10.25;;;7.70;;
32788;SDS011;19141;48.980;8.410;2023-09-12T06:16:59;10.80;;;8.57;;
32788;SDS011;19141;48.980;8.410;2023-09-12T06:19:24;12.32;;;8.20;;
32788;SDS011;19141;48.980;8.410;2023-09-12T06:21:50;15.70;;;8.70;;
32788;SDS011;19141;48.980;8.410;2023-09-12T06:24:16;10.35;;;7.88;;
32788;SDS011;19141;48.980;8.410;2023-09-12T06:26:46;11.73;;;7.60;;
32788;SDS011;19141;48.980;8.410;2023-09-12T06:29:13;13.90;;;8.23;;
32788;SDS011;19141;48.980;8.410;2023-09-12T06:31:39;12.95;;;8.98;;
32788;SDS011;19141;48.980;8.410;2023-09-12T06:34:06;11.05;;;8.63;;
32788;SDS011;19141;48.980;8.410;2023-09-12T06:36:32;11.45;;;8.23;;
32788;SDS011;19141;48.980;8.410;2023-09-12T06:38:58;16.23;;;9.88;;
32788;SDS011;19141;48.980;8.410;2023-09-12T06:41:24;13.45;;;8.10;;
32788;SDS011;19141;48.980;8.410;2023-09-12T06:43:51;12.55;;;8.35;;
32788;SDS011;19141;48.980;8.410;2023-09-12T06:46:16;13.98;;;8.35;;
32788;SDS011;19141;48.980;8.410;2023-09-12T06:48:43;12.35;;;9.40;;
32788;SDS011;19141;48.980;8.410;2023-09-12T06:51:11;12.70;;;9.93;;
32788;SDS011;19141;48.980;8.410;2023-09-12T06:53:37;16.23;;;8.45;;
32788;SDS011;19141;48.980;8.410;2023-09-12T06:56:03;13.73;;;8.40;;
32788;SDS011;19141;48.980;8.410;2023-09-12T06:58:29;12.38;;;8.73;;
32788;SDS011;19141;48.980;8.410;2023-09-12T07:00:55;11.20;;;8.45;;
32788;SDS011;19141;48.980;8.410;2023-09-12T07:03:20;11.43;;;8.93;;
32788;SDS011;19141;48.980;8.410;2023-09-12T07:05:46;13.55;;;8.57;;
32788;SDS011;19141;48.980;8.410;2023-09-12T07:08:11;13.32;;;8.82;;
32788;SDS011;19141;48.980;8.410;2023-09-12T07:10:37;14.05;;;8.85;;
32788;SDS011;19141;48.980;8.410;2023-09-12T07:13:10;12.40;;;8.77;;
32788;SDS011;19141;48.980;8.410;2023-09-12T07:15:35;11.18;;;8.25;;
32788;SDS011;19141;48.980;8.410;2023-09-12T07:18:01;15.38;;;8.68;;
32788;SDS011;19141;48.980;8.410;2023-09-12T07:20:27;17.75;;;10.60;;
32788;SDS011;19141;48.980;8.410;2023-09-12T07:22:53;16.73;;;9.00;;
32788;SDS011;19141;48.980;8.410;2023-09-12T07:25:18;11.50;;;7.60;;
32788;SDS011;19141;48.980;8.410;2023-09-12T07:30:11;13.23;;;9.07;;
32788;SDS011;19141;48.980;8.410;2023-09-12T07:32:36;15.00;;;8.73;;
32788;SDS011;19141;48.980;8.410;2023-09-12T07:35:02;12.80;;;8.60;;
32788;SDS011;19141;48.980;8.410;2023-09-12T07:37:27;11.60;;;8.23;;
32788;SDS011;19141;48.980;8.410;2023-09-12T07:39:53;11.93;;;9.10;;
32788;SDS011;19141;48.980;8.410;2023-09-12T07:42:21;12.20;;;8.85;;
32788;SDS011;19141;48.980;8.410;2023-09-12T07:44:47;11.25;;;8.23;;
32788;SDS011;19141;48.980;8.410;2023-09-12T07:47:13;13.07;;;8.25;;
32788;SDS011;19141;48.980;8.410;2023-09-12T07:49:39;11.27;;;8.32;;
32788;SDS011;19141;48.980;8.410;2023-09-12T07:52:05;13.48;;;8.57;;
32788;SDS011;19141;48.980;8.410;2023-09-12T07:54:30;9.60;;;7.50;;
32788;SDS011;19141;48.980;8.410;2023-09-12T07:56:56;11.00;;;7.90;;
32788;SDS011;19141;48.980;8.410;2023-09-12T07:59:21;11.32;;;8.02;;
32788;SDS011;19141;48.980;8.410;2023-09-12T08:01:47;9.45;;;7.55;;
32788;SDS011;19141;48.980;8.410;2023-09-12T08:04:12;12.95;;;7.63;;
32788;SDS011;19141;48.980;8.410;2023-09-12T08:06:40;11.00;;;7.40;;
32788;SDS011;19141;48.980;8.410;2023-09-12T08:09:06;13.07;;;7.37;;
32788;SDS011;19141;48.980;8.410;2023-09-12T08:11:32;9.05;;;7.22;;
32788;SDS011;19141;48.980;8.410;2023-09-12T08:13:57;15.13;;;8.50;;
32788;SDS011;19141;48.980;8.410;2023-09-12T08:16:23;12.18;;;7.88;;
32788;SDS011;19141;48.980;8.410;2023-09-12T08:18:48;8.80;;;7.28;;
32788;SDS011;19141;48.980;8.410;2023-09-12T08:21:13;8.18;;;7.20;;
32788;SDS011;19141;48.980;8.410;2023-09-12T08:23:39;9.82;;;6.57;;
32788;SDS011;19141;48.980;8.410;2023-09-12T08:26:04;11.20;;;7.20;;
32788;SDS011;19141;48.980;8.410;2023-09-12T08:28:30;10.32;;;7.30;;
32788;SDS011;19141;48.980;8.410;2023-09-12T08:30:55;9.75;;;7.00;;
32788;SDS011;19141;48.980;8.410;2023-09-12T08:33:21;8.13;;;6.82;;
32788;SDS011;19141;48.980;8.410;2023-09-12T08:35:46;12.80;;;7.65;;
32788;SDS011;19141;48.980;8.410;2023-09-12T08:38:11;11.18;;;7.20;;
32788;SDS011;19141;48.980;8.410;2023-09-12T08:40:37;10.45;;;7.07;;
32788;SDS011;19141;48.980;8.410;2023-09-12T08:43:03;10.80;;;6.85;;
32788;SDS011;19141;48.980;8.410;2023-09-12T08:45:29;9.90;;;6.90;;
32788;SDS011;19141;48.980;8.410;2023-09-12T08:47:55;11.18;;;6.40;;
32788;SDS011;19141;48.980;8.410;2023-09-12T08:50:23;8.85;;;6.75;;
32788;SDS011;19141;48.980;8.410;2023-09-12T08:52:50;8.68;;;6.88;;
32788;SDS011;19141;48.980;8.410;2023-09-12T08:55:16;10.02;;;6.28;;
32788;SDS011;19141;48.980;8.410;2023-09-12T08:57:42;11.52;;;6.97;;
32788;SDS011;19141;48.980;8.410;2023-09-12T09:00:09;8.93;;;7.85;;
32788;SDS011;19141;48.980;8.410;2023-09-12T09:02:39;10.48;;;7.95;;
32788;SDS011;19141;48.980;8.410;2023-09-12T09:05:06;8.95;;;6.28;;
32788;SDS011;19141;48.980;8.410;2023-09-12T09:07:40;9.90;;;6.32;;
32788;SDS011;19141;48.980;8.410;2023-09-12T09:10:07;12.27;;;7.13;;
32788;SDS011;19141;48.980;8.410;2023-09-12T09:12:35;11.00;;;6.70;;
32788;SDS011;19141;48.980;8.410;2023-09-12T09:17:52;10.20;;;6.68;;
32788;SDS011;19141;48.980;8.410;2023-09-12T09:20:25;12.18;;;6.88;;
32788;SDS011;19141;48.980;8.410;2023-09-12T09:22:56;9.18;;;6.78;;
32788;SDS011;19141;48.980;8.410;2023-09-12T09:25:22;8.20;;;6.38;;
32788;SDS011;19141;48.980;8.410;2023-09-12T09:27:48;9.65;;;6.32;;
32788;SDS011;19141;48.980;8.410;2023-09-12T09:30:13;10.52;;;7.15;;
32788;SDS011;19141;48.980;8.410;2023-09-12T09:32:39;8.15;;;6.30;;
32788;SDS011;19141;48.980;8.410;2023-09-12T09:35:04;8.13;;;6.45;;
32788;SDS011;19141;48.980;8.410;2023-09-12T09:37:31;10.02;;;6.57;;
32788;SDS011;19141;48.980;8.410;2023-09-12T09:39:57;10.30;;;6.85;;
32788;SDS011;19141;48.980;8.410;2023-09-12T09:42:23;8.73;;;6.57;;
32788;SDS011;19141;48.980;8.410;2023-09-12T09:44:48;8.45;;;6.30;;
32788;SDS011;19141;48.980;8.410;2023-09-12T09:47:14;9.27;;;6.75;;
32788;SDS011;19141;48.980;8.410;2023-09-12T09:49:40;9.95;;;6.00;;
32788;SDS011;19141;48.980;8.410;2023-09-12T09:52:05;7.93;;;5.78;;
32788;SDS011;19141;48.980;8.410;2023-09-12T09:54:31;8.55;;;6.03;;
32788;SDS011;19141;48.980;8.410;2023-09-12T09:56:57;7.60;;;5.97;;
32788;SDS011;19141;48.980;8.410;2023-09-12T09:59:26;7.65;;;5.85;;
32788;SDS011;19141;48.980;8.410;2023-09-12T10:01:55;7.47;;;5.82;;
32788;SDS011;19141;48.980;8.410;2023-09-12T10:04:23;8.10;;;6.13;;
32788;SDS011;19141;48.980;8.410;2023-09-12T10:06:51;6.03;;;5.43;;
32788;SDS011;19141;48.980;8.410;2023-09-12T10:09:21;9.65;;;5.80;;
32788;SDS011;19141;48.980;8.410;2023-09-12T10:11:48;7.75;;;5.90;;
32788;SDS011;19141;48.980;8.410;2023-09-12T10:14:17;7.75;;;5.50;;
32788;SDS011;19141;48.980;8.410;2023-09-12T10:16:45;10.10;;;5.72;;
32788;SDS011;19141;48.980;8.410;2023-09-12T10:21:55;7.25;;;5.40;;
32788;SDS011;19141;48.980;8.410;2023-09-12T10:24:31;6.50;;;5.90;;
32788;SDS011;19141;48.980;8.410;2023-09-12T10:26:59;6.63;;;5.97;;
32788;SDS011;19141;48.980;8.410;2023-09-12T10:29:27;6.93;;;5.53;;
32788;SDS011;19141;48.980;8.410;2023-09-12T10:31:53;6.97;;;6.27;;
32788;SDS011;19141;48.980;8.410;2023-09-12T10:34:18;9.93;;;6.47;;
32788;SDS011;19141;48.980;8.410;2023-09-12T10:36:46;6.00;;;5.32;;
32788;SDS011;19141;48.980;8.410;2023-09-12T10:39:13;9.10;;;5.13;;
32788;SDS011;19141;48.980;8.410;2023-09-12T10:41:40;8.20;;;5.40;;
32788;SDS011;19141;48.980;8.410;2023-09-12T10:44:15;6.20;;;5.27;;
32788;SDS011;19141;48.980;8.410;2023-09-12T10:46:41;7.25;;;5.10;;
32788;SDS011;19141;48.980;8.410;2023-09-12T10:51:42;7.30;;;5.68;;
32788;SDS011;19141;48.980;8.410;2023-09-12T10:54:15;7.43;;;5.53;;
32788;SDS011;19141;48.980;8.410;2023-09-12T10:56:55;8.10;;;5.47;;
32788;SDS011;19141;48.980;8.410;2023-09-12T10:59:28;7.15;;;5.53;;
32788;SDS011;19141;48.980;8.410;2023-09-12T11:01:56;8.57;;;5.80;;
32788;SDS011;19141;48.980;8.410;2023-09-12T11:05:04;6.70;;;5.13;;
32788;SDS011;19141;48.980;8.410;2023-09-12T11:12:56;7.53;;;5.93;;
32788;SDS011;19141;48.980;8.410;2023-09-12T11:15:22;5.97;;;5.03;;
32788;SDS011;19141;48.980;8.410;2023-09-12T11:17:50;7.63;;;5.35;;
32788;SDS011;19141;48.980;8.410;2023-09-12T11:22:51;7.13;;;5.00;;
32788;SDS011;19141;48.980;8.410;2023-09-12T11:25:25;5.35;;;4.72;;
32788;SDS011;19141;48.980;8.410;2023-09-12T11:32:47;6.13;;;4.82;;
32788;SDS011;19141;48.980;8.410;2023-09-12T11:35:17;6.47;;;4.95;;
32788;SDS011;19141;48.980;8.410;2023-09-12T11:37:48;5.82;;;5.07;;
32788;SDS011;19141;48.980;8.410;2023-09-12T11:40:51;6.63;;;5.18;;
32788;SDS011;19141;48.980;8.410;2023-09-12T11:43:20;5.22;;;4.72;;
32788;SDS011;19141;48.980;8.410;2023-09-12T11:45:52;6.38;;;4.82;;
32788;SDS011;19141;48.980;8.410;2023-09-12T11:48:19;8.00;;;5.07;;
32788;SDS011;19141;48.980;8.410;2023-09-12T11:50:55;5.25;;;4.70;;
32788;SDS011;19141;48.980;8.410;2023-09-12T11:53:25;7.70;;;4.72;;
32788;SDS011;19141;48.980;8.410;2023-09-12T11:55:56;5.82;;;4.55;;
32788;SDS011;19141;48.980;8.410;2023-09-12T11:58:24;6.15;;;4.22;;
32788;SDS011;19141;48.980;8.410;2023-09-12T12:00:51;6.20;;;4.03;;
32788;SDS011;19141;48.980;8.410;2023-09-12T12:03:18;7.22;;;4.40;;
32788;SDS011;19141;48.980;8.410;2023-09-12T12:05:46;6.32;;;4.53;;
32788;SDS011;19141;48.980;8.410;2023-09-12T12:08:13;5.30;;;3.97;;
32788;SDS011;19141;48.980;8.410;2023-09-12T12:10:40;5.88;;;4.43;;
32788;SDS011;19141;48.980;8.410;2023-09-12T12:13:06;5.03;;;4.15;;
32788;SDS011;19141;48.980;8.410;2023-09-12T12:15:36;4.78;;;4.07;;
32788;SDS011;19141;48.980;8.410;2023-09-12T12:18:01;8.50;;;4.70;;
32788;SDS011;19141;48.980;8.410;2023-09-12T12:20:27;5.28;;;4.43;;
32788;SDS011;19141;48.980;8.410;2023-09-12T12:22:55;5.32;;;4.45;;
32788;SDS011;19141;48.980;8.410;2023-09-12T12:25:21;5.05;;;3.85;;
32788;SDS011;19141;48.980;8.410;2023-09-12T12:27:47;5.28;;;4.20;;
32788;SDS011;19141;48.980;8.410;2023-09-12T12:30:13;5.72;;;4.13;;
32788;SDS011;19141;48.980;8.410;2023-09-12T12:32:42;4.95;;;4.00;;
32788;SDS011;19141;48.980;8.410;2023-09-12T12:35:21;6.22;;;3.95;;
32788;SDS011;19141;48.980;8.410;2023-09-12T12:37:48;5.47;;;3.72;;
32788;SDS011;19141;48.980;8.410;2023-09-12T12:40:15;5.88;;;4.20;;
32788;SDS011;19141;48.980;8.410;2023-09-12T12:42:42;5.97;;;4.28;;
32788;SDS011;19141;48.980;8.410;2023-09-12T12:45:12;5.30;;;3.97;;
32788;SDS011;19141;48.980;8.410;2023-09-12T12:47:39;5.25;;;4.32;;
32788;SDS011;19141;48.980;8.410;2023-09-12T12:50:11;7.45;;;4.38;;
32788;SDS011;19141;48.980;8.410;2023-09-12T12:52:38;6.82;;;4.68;;
32788;SDS011;19141;48.980;8.410;2023-09-12T12:55:04;4.93;;;4.53;;
32788;SDS011;19141;48.980;8.410;2023-09-12T12:57:37;4.68;;;4.25;;
32788;SDS011;19141;48.980;8.410;2023-09-12T13:00:08;4.38;;;3.85;;
32788;SDS011;19141;48.980;8.410;2023-09-12T13:02:36;6.63;;;4.10;;
32788;SDS011;19141;48.980;8.410;2023-09-12T13:05:02;6.07;;;4.15;;
32788;SDS011;19141;48.980;8.410;2023-09-12T13:07:28;6.75;;;4.40;;
32788;SDS011;19141;48.980;8.410;2023-09-12T13:09:53;6.53;;;4.23;;
32788;SDS011;19141;48.980;8.410;2023-09-12T13:12:19;5.20;;;4.30;;
32788;SDS011;19141;48.980;8.410;2023-09-12T13:14:44;5.05;;;4.10;;
32788;SDS011;19141;48.980;8.410;2023-09-12T13:17:10;6.40;;;4.63;;
32788;SDS011;19141;48.980;8.410;2023-09-12T13:19:35;6.78;;;4.10;;
32788;SDS011;19141;48.980;8.410;2023-09-12T13:22:01;7.83;;;4.30;;
32788;SDS011;19141;48.980;8.410;2023-09-12T13:24:26;6.67;;;4.27;;
32788;SDS011;19141;48.980;8.410;2023-09-12T13:26:52;4.83;;;4.17;;
32788;SDS011;19141;48.980;8.410;2023-09-12T13:29:18;6.68;;;3.80;;
32788;SDS011;19141;48.980;8.410;2023-09-12T13:31:44;4.60;;;4.20;;
32788;SDS011;19141;48.980;8.410;2023-09-12T13:34:10;5.07;;;4.47;;
32788;SDS011;19141;48.980;8.410;2023-09-12T13:36:35;6.40;;;4.33;;
32788;SDS011;19141;48.980;8.410;2023-09-12T13:39:01;4.73;;;4.17;;
32788;SDS011;19141;48.980;8.410;2023-09-12T13:43:52;6.22;;;4.28;;
32788;SDS011;19141;48.980;8.410;2023-09-12T13:46:18;8.00;;;4.13;;
32788;SDS011;19141;48.980;8.410;2023-09-12T13:48:43;4.30;;;3.90;;
32788;SDS011;19141;48.980;8.410;2023-09-12T13:51:09;4.57;;;3.60;;
32788;SDS011;19141;48.980;8.410;2023-09-12T13:53:34;6.80;;;3.97;;
32788;SDS011;19141;48.980;8.410;2023-09-12T13:55:59;5.50;;;4.10;;
32788;SDS011;19141;48.980;8.410;2023-09-12T13:58:26;4.57;;;3.38;;
32788;SDS011;19141;48.980;8.410;2023-09-12T14:00:52;5.90;;;4.27;;
32788;SDS011;19141;48.980;8.410;2023-09-12T14:03:17;5.50;;;3.30;;
32788;SDS011;19141;48.980;8.410;2023-09-12T14:05:42;5.23;;;4.53;;
32788;SDS011;19141;48.980;8.410;2023-09-12T14:08:08;4.40;;;3.60;;
32788;SDS011;19141;48.980;8.410;2023-09-12T14:10:33;5.93;;;4.07;;
32788;SDS011;19141;48.980;8.410;2023-09-12T14:12:59;6.27;;;4.20;;
32788;SDS011;19141;48.980;8.410;2023-09-12T14:15:24;8.87;;;4.60;;
32788;SDS011;19141;48.980;8.410;2023-09-12T14:17:51;7.50;;;4.32;;
32788;SDS011;19141;48.980;8.410;2023-09-12T14:20:16;6.20;;;4.80;;
32788;SDS011;19141;48.980;8.410;2023-09-12T14:22:42;5.00;;;4.23;;
32788;SDS011;19141;48.980;8.410;2023-09-12T14:25:08;5.50;;;4.05;;
32788;SDS011;19141;48.980;8.410;2023-09-12T14:27:39;5.88;;;4.25;;
32788;SDS011;19141;48.980;8.410;2023-09-12T14:30:09;5.43;;;4.03;;
32788;SDS011;19141;48.980;8.410;2023-09-12T14:32:35;6.18;;;4.30;;
32788;SDS011;19141;48.980;8.410;2023-09-12T14:35:00;4.87;;;4.40;;
32788;SDS011;19141;48.980;8.410;2023-09-12T14:37:26;8.27;;;4.03;;
32788;SDS011;19141;48.980;8.410;2023-09-12T14:39:53;5.03;;;4.10;;
32788;SDS011;19141;48.980;8.410;2023-09-12T14:42:20;5.03;;;4.15;;
32788;SDS011;19141;48.980;8.410;2023-09-12T14:44:46;6.60;;;4.40;;
32788;SDS011;19141;48.980;8.410;2023-09-12T14:47:11;7.83;;;4.50;;
32788;SDS011;19141;48.980;8.410;2023-09-12T14:49:36;6.30;;;4.07;;
32788;SDS011;19141;48.980;8.410;2023-09-12T14:52:02;5.43;;;4.07;;
32788;SDS011;19141;48.980;8.410;2023-09-12T14:54:28;6.03;;;3.50;;
32788;SDS011;19141;48.980;8.410;2023-09-12T14:56:53;5.37;;;3.80;;
32788;SDS011;19141;48.980;8.410;2023-09-12T14:59:18;4.83;;;4.40;;
32788;SDS011;19141;48.980;8.410;2023-09-12T15:01:44;5.87;;;3.60;;
32788;SDS011;19141;48.980;8.410;2023-09-12T15:04:10;4.83;;;3.50;;
32788;SDS011;19141;48.980;8.410;2023-09-12T15:09:02;4.73;;;4.00;;
32788;SDS011;19141;48.980;8.410;2023-09-12T15:11:27;6.70;;;4.30;;
32788;SDS011;19141;48.980;8.410;2023-09-12T15:13:52;5.50;;;4.23;;
32788;SDS011;19141;48.980;8.410;2023-09-12T15:16:18;5.90;;;3.97;;
32788;SDS011;19141;48.980;8.410;2023-09-12T15:18:43;4.17;;;3.70;;
32788;SDS011;19141;48.980;8.410;2023-09-12T15:21:09;7.17;;;3.73;;
32788;SDS011;19141;48.980;8.410;2023-09-12T15:23:34;5.17;;;3.50;;
32788;SDS011;19141;48.980;8.410;2023-09-12T15:26:00;4.37;;;3.70;;
32788;SDS011;19141;48.980;8.410;2023-09-12T15:28:25;6.40;;;4.43;;
32788;SDS011;19141;48.980;8.410;2023-09-12T15:30:50;5.33;;;3.70;;
32788;SDS011;19141;48.980;8.410;2023-09-12T15:33:16;7.00;;;4.33;;
32788;SDS011;19141;48.980;8.410;2023-09-12T15:35:41;5.00;;;3.93;;
32788;SDS011;19141;48.980;8.410;2023-09-12T15:38:07;5.03;;;3.90;;
32788;SDS011;19141;48.980;8.410;2023-09-12T15:40:32;4.03;;;3.60;;
32788;SDS011;19141;48.980;8.410;2023-09-12T15:42:58;5.55;;;3.75;;
32788;SDS011;19141;48.980;8.410;2023-09-12T15:45:24;5.27;;;4.00;;
32788;SDS011;19141;48.980;8.410;2023-09-12T15:47:49;6.07;;;3.93;;
32788;SDS011;19141;48.980;8.410;2023-09-12T15:50:15;4.03;;;3.47;;
32788;SDS011;19141;48.980;8.410;2023-09-12T15:52:40;4.47;;;4.07;;
32788;SDS011;19141;48.980;8.410;2023-09-12T15:55:07;5.82;;;4.40;;
32788;SDS011;19141;48.980;8.410;2023-09-12T15:57:34;4.57;;;3.90;;
32788;SDS011;19141;48.980;8.410;2023-09-12T16:00:06;6.38;;;3.75;;
32788;SDS011;19141;48.980;8.410;2023-09-12T16:02:38;4.35;;;3.92;;
32788;SDS011;19141;48.980;8.410;2023-09-12T16:05:04;7.22;;;3.95;;
32788;SDS011;19141;48.980;8.410;2023-09-12T16:07:30;4.60;;;4.10;;
32788;SDS011;19141;48.980;8.410;2023-09-12T16:09:55;5.85;;;4.40;;
32788;SDS011;19141;48.980;8.410;2023-09-12T16:12:21;7.77;;;4.33;;
32788;SDS011;19141;48.980;8.410;2023-09-12T16:14:46;4.93;;;4.40;;
32788;SDS011;19141;48.980;8.410;2023-09-12T16:17:11;6.03;;;4.00;;
32788;SDS011;19141;48.980;8.410;2023-09-12T16:19:37;4.13;;;3.50;;
32788;SDS011;19141;48.980;8.410;2023-09-12T16:22:02;11.97;;;8.57;;
32788;SDS011;19141;48.980;8.410;2023-09-12T16:24:30;8.70;;;6.72;;
32788;SDS011;19141;48.980;8.410;2023-09-12T16:26:55;6.53;;;4.45;;
32788;SDS011;19141;48.980;8.410;2023-09-12T16:29:21;4.93;;;4.07;;
32788;SDS011;19141;48.980;8.410;2023-09-12T16:31:46;5.47;;;3.60;;
32788;SDS011;19141;48.980;8.410;2023-09-12T16:34:12;4.25;;;3.70;;
32788;SDS011;19141;48.980;8.410;2023-09-12T16:36:38;5.13;;;4.00;;
32788;SDS011;19141;48.980;8.410;2023-09-12T16:39:03;4.20;;;3.60;;
32788;SDS011;19141;48.980;8.410;2023-09-12T16:41:29;5.35;;;3.70;;
32788;SDS011;19141;48.980;8.410;2023-09-12T16:43:54;5.38;;;4.05;;
32788;SDS011;19141;48.980;8.410;2023-09-12T16:46:19;4.50;;;4.03;;
32788;SDS011;19141;48.980;8.410;2023-09-12T16:48:45;5.37;;;4.20;;
32788;SDS011;19141;48.980;8.410;2023-09-12T16:51:11;5.03;;;3.65;;
32788;SDS011;19141;48.980;8.410;2023-09-12T16:53:37;4.63;;;3.75;;
32788;SDS011;19141;48.980;8.410;2023-09-12T16:56:02;5.05;;;3.75;;
32788;SDS011;19141;48.980;8.410;2023-09-12T16:58:28;7.90;;;4.03;;
32788;SDS011;19141;48.980;8.410;2023-09-12T17:00:53;6.60;;;3.93;;
32788;SDS011;19141;48.980;8.410;2023-09-12T17:03:19;5.07;;;4.13;;
32788;SDS011;19141;48.980;8.410;2023-09-12T17:05:45;4.90;;;4.43;;
32788;SDS011;19141;48.980;8.410;2023-09-12T17:08:10;5.33;;;4.50;;
32788;SDS011;19141;48.980;8.410;2023-09-12T17:10:36;10.80;;;4.95;;
32788;SDS011;19141;48.980;8.410;2023-09-12T17:13:02;5.38;;;3.90;;
32788;SDS011;19141;48.980;8.410;2023-09-12T17:15:27;6.13;;;3.88;;
32788;SDS011;19141;48.980;8.410;2023-09-12T17:17:53;5.20;;;3.90;;
32788;SDS011;19141;48.980;8.410;2023-09-12T17:20:18;7.45;;;4.78;;
32788;SDS011;19141;48.980;8.410;2023-09-12T17:22:44;14.05;;;9.45;;
32788;SDS011;19141;48.980;8.410;2023-09-12T17:25:09;20.65;;;16.40;;
32788;SDS011;19141;48.980;8.410;2023-09-12T17:27:37;15.98;;;11.85;;
32788;SDS011;19141;48.980;8.410;2023-09-12T17:30:04;19.48;;;15.90;;
32788;SDS011;19141;48.980;8.410;2023-09-12T17:32:30;13.32;;;8.88;;
32788;SDS011;19141;48.980;8.410;2023-09-12T17:34:56;13.88;;;10.20;;
32788;SDS011;19141;48.980;8.410;2023-09-12T17:37:24;14.77;;;9.88;;
32788;SDS011;19141;48.980;8.410;2023-09-12T17:39:50;9.85;;;6.63;;
32788;SDS011;19141;48.980;8.410;2023-09-12T17:42:16;11.77;;;7.88;;
32788;SDS011;19141;48.980;8.410;2023-09-12T17:44:42;9.23;;;6.95;;
32788;SDS011;19141;48.980;8.410;2023-09-12T17:47:07;11.30;;;6.30;;
32788;SDS011;19141;48.980;8.410;2023-09-12T17:49:33;7.70;;;6.07;;
32788;SDS011;19141;48.980;8.410;2023-09-12T17:51:58;8.73;;;4.70;;
32788;SDS011;19141;48.980;8.410;2023-09-12T17:54:24;12.07;;;6.43;;
32788;SDS011;19141;48.980;8.410;2023-09-12T17:56:49;13.05;;;6.80;;
32788;SDS011;19141;48.980;8.410;2023-09-12T17:59:14;14.05;;;7.07;;
32788;SDS011;19141;48.980;8.410;2023-09-12T18:01:40;13.43;;;6.20;;
32788;SDS011;19141;48.980;8.410;2023-09-12T18:04:06;12.63;;;6.53;;
32788;SDS011;19141;48.980;8.410;2023-09-12T18:06:31;13.35;;;6.13;;
32788;SDS011;19141;48.980;8.410;2023-09-12T18:08:59;7.00;;;4.90;;
32788;SDS011;19141;48.980;8.410;2023-09-12T18:13:51;9.32;;;5.57;;
32788;SDS011;19141;48.980;8.410;2023-09-12T18:16:16;8.88;;;5.43;;
32788;SDS011;19141;48.980;8.410;2023-09-12T18:18:42;6.53;;;5.38;;
32788;SDS011;19141;48.980;8.410;2023-09-12T18:21:08;8.10;;;5.33;;
32788;SDS011;19141;48.980;8.410;2023-09-12T18:23:34;6.90;;;5.53;;
32788;SDS011;19141;48.980;8.410;2023-09-12T18:26:01;12.10;;;4.93;;
32788;SDS011;19141;48.980;8.410;2023-09-12T18:28:41;6.30;;;5.17;;
32788;SDS011;19141;48.980;8.410;2023-09-12T18:31:14;6.20;;;5.05;;
32788;SDS011;19141;48.980;8.410;2023-09-12T18:33:41;9.10;;;5.63;;
32788;SDS011;19141;48.980;8.410;2023-09-12T18:36:07;9.35;;;5.05;;
32788;SDS011;19141;48.980;8.410;2023-09-12T18:38:34;8.43;;;4.75;;
32788;SDS011;19141;48.980;8.410;2023-09-12T18:41:00;6.80;;;5.38;;
32788;SDS011;19141;48.980;8.410;2023-09-12T18:43:26;9.65;;;5.50;;
32788;SDS011;19141;48.980;8.410;2023-09-12T18:45:51;8.25;;;5.00;;
32788;SDS011;19141;48.980;8.410;2023-09-12T18:48:17;7.38;;;4.68;;
32788;SDS011;19141;48.980;8.410;2023-09-12T18:50:43;8.35;;;5.13;;
32788;SDS011;19141;48.980;8.410;2023-09-12T18:53:11;10.80;;;5.30;;
32788;SDS011;19141;48.980;8.410;2023-09-12T18:55:43;9.93;;;5.13;;
32788;SDS011;19141;48.980;8.410;2023-09-12T18:58:09;7.10;;;4.95;;
32788;SDS011;19141;48.980;8.410;2023-09-12T19:00:36;7.68;;;5.25;;
32788;SDS011;19141;48.980;8.410;2023-09-12T19:03:04;7.53;;;4.80;;
32788;SDS011;19141;48.980;8.410;2023-09-12T19:05:30;7.60;;;5.10;;
32788;SDS011;19141;48.980;8.410;2023-09-12T19:07:55;5.60;;;4.20;;
32788;SDS011;19141;48.980;8.410;2023-09-12T19:10:21;7.13;;;5.13;;
32788;SDS011;19141;48.980;8.410;2023-09-12T19:12:46;7.38;;;4.72;;
32788;SDS011;19141;48.980;8.410;2023-09-12T19:15:12;5.97;;;4.63;;
32788;SDS011;19141;48.980;8.410;2023-09-12T19:17:37;7.00;;;4.32;;
32788;SDS011;19141;48.980;8.410;2023-09-12T19:20:03;4.45;;;3.83;;
32788;SDS011;19141;48.980;8.410;2023-09-12T19:22:29;8.15;;;4.50;;
32788;SDS011;19141;48.980;8.410;2023-09-12T19:24:55;5.25;;;4.38;;
32788;SDS011;19141;48.980;8.410;2023-09-12T19:27:22;6.45;;;4.50;;
32788;SDS011;19141;48.980;8.410;2023-09-12T19:29:51;8.07;;;3.88;;
32788;SDS011;19141;48.980;8.410;2023-09-12T19:32:20;4.53;;;3.90;;